sensor_id;sensor_type;location;lat;lon;timestamp;P1;durP1;ratioP1;P2;durP2;ratioP2
28802;SDS011;15949;55.656;37.422;2023-08-30T00:00:30;31.10;;;19.52;;
28802;SDS011;15949;55.656;37.422;2023-08-30T00:05:38;27.10;;;19.10;;
28802;SDS011;15949;55.656;37.422;2023-08-30T00:10:45;27.90;;;20.42;;
28802;SDS011;15949;55.656;37.422;2023-08-30T00:15:51;27.80;;;19.88;;
28802;SDS011;15949;55.656;37.422;2023-08-30T00:20:57;31.42;;;20.48;;
28802;SDS011;15949;55.656;37.422;2023-08-30T00:26:03;31.40;;;20.15;;
28802;SDS011;15949;55.656;37.422;2023-08-30T00:31:08;31.65;;;21.65;;
28802;SDS011;15949;55.656;37.422;2023-08-30T00:36:14;31.10;;;20.48;;
28802;SDS011;15949;55.656;37.422;2023-08-30T00:41:20;28.55;;;18.83;;
28802;SDS011;15949;55.656;37.422;2023-08-30T00:46:25;27.08;;;19.20;;
28802;SDS011;15949;55.656;37.422;2023-08-30T00:51:32;25.90;;;17.48;;
28802;SDS011;15949;55.656;37.422;2023-08-30T00:56:38;27.27;;;18.38;;
28802;SDS011;15949;55.656;37.422;2023-08-30T01:01:44;27.10;;;19.00;;
28802;SDS011;15949;55.656;37.422;2023-08-30T01:06:50;27.45;;;19.27;;
28802;SDS011;15949;55.656;37.422;2023-08-30T01:17:02;25.08;;;18.50;;
28802;SDS011;15949;55.656;37.422;2023-08-30T01:22:21;27.33;;;19.67;;
28802;SDS011;15949;55.656;37.422;2023-08-30T01:27:41;26.48;;;19.33;;
28802;SDS011;15949;55.656;37.422;2023-08-30T01:32:48;25.13;;;19.38;;
28802;SDS011;15949;55.656;37.422;2023-08-30T01:37:55;25.83;;;19.55;;
28802;SDS011;15949;55.656;37.422;2023-08-30T01:43:02;28.90;;;21.17;;
28802;SDS011;15949;55.656;37.422;2023-08-30T01:48:12;29.23;;;20.50;;
28802;SDS011;15949;55.656;37.422;2023-08-30T01:53:20;26.10;;;20.73;;
28802;SDS011;15949;55.656;37.422;2023-08-30T01:58:28;26.05;;;20.67;;
28802;SDS011;15949;55.656;37.422;2023-08-30T02:03:33;24.58;;;20.02;;
28802;SDS011;15949;55.656;37.422;2023-08-30T02:08:44;30.27;;;21.80;;
28802;SDS011;15949;55.656;37.422;2023-08-30T02:14:12;30.73;;;23.30;;
28802;SDS011;15949;55.656;37.422;2023-08-30T02:19:22;29.65;;;24.30;;
28802;SDS011;15949;55.656;37.422;2023-08-30T02:24:28;27.45;;;23.65;;
28802;SDS011;15949;55.656;37.422;2023-08-30T02:29:34;29.88;;;24.88;;
28802;SDS011;15949;55.656;37.422;2023-08-30T02:34:40;28.65;;;24.02;;
28802;SDS011;15949;55.656;37.422;2023-08-30T02:39:45;29.42;;;25.02;;
28802;SDS011;15949;55.656;37.422;2023-08-30T02:44:51;33.03;;;26.00;;
28802;SDS011;15949;55.656;37.422;2023-08-30T02:49:58;34.35;;;26.80;;
28802;SDS011;15949;55.656;37.422;2023-08-30T02:55:03;29.20;;;24.38;;
28802;SDS011;15949;55.656;37.422;2023-08-30T03:00:09;26.55;;;22.50;;
28802;SDS011;15949;55.656;37.422;2023-08-30T03:05:15;26.05;;;21.85;;
28802;SDS011;15949;55.656;37.422;2023-08-30T03:10:21;24.65;;;21.70;;
28802;SDS011;15949;55.656;37.422;2023-08-30T03:15:30;26.30;;;22.35;;
28802;SDS011;15949;55.656;37.422;2023-08-30T03:20:37;22.27;;;19.50;;
28802;SDS011;15949;55.656;37.422;2023-08-30T03:25:42;22.95;;;19.88;;
28802;SDS011;15949;55.656;37.422;2023-08-30T03:30:48;21.65;;;19.13;;
28802;SDS011;15949;55.656;37.422;2023-08-30T03:35:54;21.52;;;18.10;;
28802;SDS011;15949;55.656;37.422;2023-08-30T03:41:03;20.02;;;16.92;;
28802;SDS011;15949;55.656;37.422;2023-08-30T03:46:09;21.55;;;17.50;;
28802;SDS011;15949;55.656;37.422;2023-08-30T03:51:16;21.17;;;17.05;;
28802;SDS011;15949;55.656;37.422;2023-08-30T03:56:22;21.95;;;16.20;;
28802;SDS011;15949;55.656;37.422;2023-08-30T04:01:28;20.58;;;15.57;;
28802;SDS011;15949;55.656;37.422;2023-08-30T04:06:34;20.58;;;15.57;;
28802;SDS011;15949;55.656;37.422;2023-08-30T04:11:39;19.05;;;16.02;;
28802;SDS011;15949;55.656;37.422;2023-08-30T04:16:47;23.10;;;16.95;;
28802;SDS011;15949;55.656;37.422;2023-08-30T04:21:53;18.88;;;15.32;;
28802;SDS011;15949;55.656;37.422;2023-08-30T04:26:58;20.42;;;15.55;;
28802;SDS011;15949;55.656;37.422;2023-08-30T04:32:04;20.83;;;16.10;;
28802;SDS011;15949;55.656;37.422;2023-08-30T04:37:10;19.45;;;15.35;;
28802;SDS011;15949;55.656;37.422;2023-08-30T04:42:15;17.98;;;15.73;;
28802;SDS011;15949;55.656;37.422;2023-08-30T04:47:21;17.83;;;14.68;;
28802;SDS011;15949;55.656;37.422;2023-08-30T04:52:27;17.65;;;14.68;;
28802;SDS011;15949;55.656;37.422;2023-08-30T04:57:33;19.27;;;14.95;;
28802;SDS011;15949;55.656;37.422;2023-08-30T05:02:39;16.90;;;13.35;;
28802;SDS011;15949;55.656;37.422;2023-08-30T05:07:45;21.85;;;13.68;;
28802;SDS011;15949;55.656;37.422;2023-08-30T05:12:51;19.75;;;13.18;;
28802;SDS011;15949;55.656;37.422;2023-08-30T05:17:57;16.88;;;13.20;;
28802;SDS011;15949;55.656;37.422;2023-08-30T05:23:02;14.60;;;12.35;;
28802;SDS011;15949;55.656;37.422;2023-08-30T05:28:08;19.02;;;12.93;;
28802;SDS011;15949;55.656;37.422;2023-08-30T05:33:14;19.58;;;12.65;;
28802;SDS011;15949;55.656;37.422;2023-08-30T05:38:19;16.63;;;12.45;;
28802;SDS011;15949;55.656;37.422;2023-08-30T05:43:25;12.90;;;8.98;;
28802;SDS011;15949;55.656;37.422;2023-08-30T05:48:32;14.65;;;9.75;;
28802;SDS011;15949;55.656;37.422;2023-08-30T05:53:38;13.77;;;9.10;;
28802;SDS011;15949;55.656;37.422;2023-08-30T05:58:44;16.25;;;9.77;;
28802;SDS011;15949;55.656;37.422;2023-08-30T06:03:49;12.90;;;9.38;;
28802;SDS011;15949;55.656;37.422;2023-08-30T06:08:55;13.95;;;10.00;;
28802;SDS011;15949;55.656;37.422;2023-08-30T06:14:00;16.25;;;10.55;;
28802;SDS011;15949;55.656;37.422;2023-08-30T06:19:06;15.00;;;10.60;;
28802;SDS011;15949;55.656;37.422;2023-08-30T06:24:12;13.93;;;9.23;;
28802;SDS011;15949;55.656;37.422;2023-08-30T06:29:17;12.38;;;8.30;;
28802;SDS011;15949;55.656;37.422;2023-08-30T06:34:23;8.85;;;6.50;;
28802;SDS011;15949;55.656;37.422;2023-08-30T06:39:32;9.63;;;6.65;;
28802;SDS011;15949;55.656;37.422;2023-08-30T06:44:39;10.43;;;6.50;;
28802;SDS011;15949;55.656;37.422;2023-08-30T06:49:45;11.95;;;6.63;;
28802;SDS011;15949;55.656;37.422;2023-08-30T06:54:51;13.27;;;6.97;;
28802;SDS011;15949;55.656;37.422;2023-08-30T06:59:57;9.27;;;6.82;;
28802;SDS011;15949;55.656;37.422;2023-08-30T07:05:04;13.23;;;7.25;;
28802;SDS011;15949;55.656;37.422;2023-08-30T07:10:10;9.95;;;5.68;;
28802;SDS011;15949;55.656;37.422;2023-08-30T07:15:16;8.23;;;5.60;;
28802;SDS011;15949;55.656;37.422;2023-08-30T07:20:22;8.23;;;5.35;;
28802;SDS011;15949;55.656;37.422;2023-08-30T07:25:28;8.95;;;5.38;;
28802;SDS011;15949;55.656;37.422;2023-08-30T07:30:34;11.55;;;5.90;;
28802;SDS011;15949;55.656;37.422;2023-08-30T07:35:40;12.98;;;6.80;;
28802;SDS011;15949;55.656;37.422;2023-08-30T07:40:46;13.45;;;6.45;;
28802;SDS011;15949;55.656;37.422;2023-08-30T07:45:52;10.65;;;6.03;;
28802;SDS011;15949;55.656;37.422;2023-08-30T07:50:57;10.30;;;5.70;;
28802;SDS011;15949;55.656;37.422;2023-08-30T07:56:03;13.82;;;5.85;;
28802;SDS011;15949;55.656;37.422;2023-08-30T08:01:09;10.80;;;5.82;;
28802;SDS011;15949;55.656;37.422;2023-08-30T08:06:22;13.35;;;6.07;;
28802;SDS011;15949;55.656;37.422;2023-08-30T08:11:27;7.45;;;5.55;;
28802;SDS011;15949;55.656;37.422;2023-08-30T08:16:33;11.90;;;6.13;;
28802;SDS011;15949;55.656;37.422;2023-08-30T08:21:39;11.05;;;5.13;;
28802;SDS011;15949;55.656;37.422;2023-08-30T08:26:44;10.35;;;5.60;;
28802;SDS011;15949;55.656;37.422;2023-08-30T08:31:51;10.90;;;5.00;;
28802;SDS011;15949;55.656;37.422;2023-08-30T08:36:56;9.05;;;5.28;;
28802;SDS011;15949;55.656;37.422;2023-08-30T08:42:02;10.52;;;5.53;;
28802;SDS011;15949;55.656;37.422;2023-08-30T08:47:09;11.38;;;5.63;;
28802;SDS011;15949;55.656;37.422;2023-08-30T08:52:15;14.05;;;5.38;;
28802;SDS011;15949;55.656;37.422;2023-08-30T08:57:20;22.48;;;6.65;;
28802;SDS011;15949;55.656;37.422;2023-08-30T09:02:26;9.38;;;5.38;;
28802;SDS011;15949;55.656;37.422;2023-08-30T09:07:34;12.63;;;5.50;;
28802;SDS011;15949;55.656;37.422;2023-08-30T09:12:41;11.55;;;5.60;;
28802;SDS011;15949;55.656;37.422;2023-08-30T09:17:46;10.50;;;5.18;;
28802;SDS011;15949;55.656;37.422;2023-08-30T09:22:52;12.35;;;5.50;;
28802;SDS011;15949;55.656;37.422;2023-08-30T09:27:58;12.57;;;5.30;;
28802;SDS011;15949;55.656;37.422;2023-08-30T09:38:16;13.75;;;5.72;;
28802;SDS011;15949;55.656;37.422;2023-08-30T09:43:24;11.57;;;6.57;;
28802;SDS011;15949;55.656;37.422;2023-08-30T09:48:30;15.00;;;6.32;;
28802;SDS011;15949;55.656;37.422;2023-08-30T09:53:40;11.80;;;5.97;;
28802;SDS011;15949;55.656;37.422;2023-08-30T09:58:49;10.90;;;6.40;;
28802;SDS011;15949;55.656;37.422;2023-08-30T10:03:55;10.75;;;6.20;;
28802;SDS011;15949;55.656;37.422;2023-08-30T10:09:02;11.77;;;6.13;;
28802;SDS011;15949;55.656;37.422;2023-08-30T10:14:13;12.85;;;6.25;;
28802;SDS011;15949;55.656;37.422;2023-08-30T10:19:26;17.05;;;5.60;;
28802;SDS011;15949;55.656;37.422;2023-08-30T10:24:32;12.18;;;5.82;;
28802;SDS011;15949;55.656;37.422;2023-08-30T10:29:46;11.18;;;5.50;;
28802;SDS011;15949;55.656;37.422;2023-08-30T10:34:54;13.23;;;6.10;;
28802;SDS011;15949;55.656;37.422;2023-08-30T10:40:00;12.35;;;6.53;;
28802;SDS011;15949;55.656;37.422;2023-08-30T10:45:09;10.63;;;6.25;;
28802;SDS011;15949;55.656;37.422;2023-08-30T10:50:15;12.18;;;6.10;;
28802;SDS011;15949;55.656;37.422;2023-08-30T10:55:21;13.07;;;5.95;;
28802;SDS011;15949;55.656;37.422;2023-08-30T11:00:28;9.77;;;6.50;;
28802;SDS011;15949;55.656;37.422;2023-08-30T11:05:35;12.02;;;6.13;;
28802;SDS011;15949;55.656;37.422;2023-08-30T11:10:41;8.27;;;5.82;;
28802;SDS011;15949;55.656;37.422;2023-08-30T11:15:47;14.00;;;5.82;;
28802;SDS011;15949;55.656;37.422;2023-08-30T11:20:59;11.30;;;6.70;;
28802;SDS011;15949;55.656;37.422;2023-08-30T11:26:06;12.15;;;5.82;;
28802;SDS011;15949;55.656;37.422;2023-08-30T11:31:19;13.55;;;5.70;;
28802;SDS011;15949;55.656;37.422;2023-08-30T11:36:31;13.82;;;5.85;;
28802;SDS011;15949;55.656;37.422;2023-08-30T11:41:38;10.77;;;5.38;;
28802;SDS011;15949;55.656;37.422;2023-08-30T11:46:44;10.80;;;4.95;;
28802;SDS011;15949;55.656;37.422;2023-08-30T11:51:50;15.70;;;4.93;;
28802;SDS011;15949;55.656;37.422;2023-08-30T11:56:58;17.80;;;5.55;;
28802;SDS011;15949;55.656;37.422;2023-08-30T12:02:03;20.30;;;4.53;;
28802;SDS011;15949;55.656;37.422;2023-08-30T12:07:09;8.20;;;4.30;;
28802;SDS011;15949;55.656;37.422;2023-08-30T12:12:16;8.90;;;3.50;;
28802;SDS011;15949;55.656;37.422;2023-08-30T12:17:21;9.13;;;3.53;;
28802;SDS011;15949;55.656;37.422;2023-08-30T12:22:36;12.40;;;4.25;;
28802;SDS011;15949;55.656;37.422;2023-08-30T12:27:43;19.50;;;4.93;;
28802;SDS011;15949;55.656;37.422;2023-08-30T12:32:48;11.30;;;3.88;;
28802;SDS011;15949;55.656;37.422;2023-08-30T12:37:54;10.05;;;4.03;;
28802;SDS011;15949;55.656;37.422;2023-08-30T12:43:01;11.07;;;3.92;;
28802;SDS011;15949;55.656;37.422;2023-08-30T12:48:06;10.48;;;3.70;;
28802;SDS011;15949;55.656;37.422;2023-08-30T12:53:13;6.80;;;3.35;;
28802;SDS011;15949;55.656;37.422;2023-08-30T12:58:20;8.05;;;3.40;;
28802;SDS011;15949;55.656;37.422;2023-08-30T13:03:25;12.20;;;3.83;;
28802;SDS011;15949;55.656;37.422;2023-08-30T13:08:31;6.25;;;3.33;;
28802;SDS011;15949;55.656;37.422;2023-08-30T13:13:37;12.13;;;3.88;;
28802;SDS011;15949;55.656;37.422;2023-08-30T13:18:42;14.45;;;3.75;;
28802;SDS011;15949;55.656;37.422;2023-08-30T13:23:48;10.88;;;4.28;;
28802;SDS011;15949;55.656;37.422;2023-08-30T13:28:53;8.27;;;3.72;;
28802;SDS011;15949;55.656;37.422;2023-08-30T13:33:59;9.70;;;4.55;;
28802;SDS011;15949;55.656;37.422;2023-08-30T13:39:04;10.15;;;4.05;;
28802;SDS011;15949;55.656;37.422;2023-08-30T13:44:10;10.73;;;4.47;;
28802;SDS011;15949;55.656;37.422;2023-08-30T13:49:16;7.03;;;4.60;;
28802;SDS011;15949;55.656;37.422;2023-08-30T13:54:23;8.63;;;4.60;;
28802;SDS011;15949;55.656;37.422;2023-08-30T13:59:29;8.02;;;4.60;;
28802;SDS011;15949;55.656;37.422;2023-08-30T14:04:35;12.25;;;5.50;;
28802;SDS011;15949;55.656;37.422;2023-08-30T14:09:42;10.50;;;4.80;;
28802;SDS011;15949;55.656;37.422;2023-08-30T14:14:48;17.73;;;4.82;;
28802;SDS011;15949;55.656;37.422;2023-08-30T14:19:53;9.43;;;5.13;;
28802;SDS011;15949;55.656;37.422;2023-08-30T14:24:59;12.13;;;5.20;;
28802;SDS011;15949;55.656;37.422;2023-08-30T14:30:05;13.38;;;5.07;;
28802;SDS011;15949;55.656;37.422;2023-08-30T14:35:11;14.23;;;5.53;;
28802;SDS011;15949;55.656;37.422;2023-08-30T14:40:17;12.18;;;4.97;;
28802;SDS011;15949;55.656;37.422;2023-08-30T14:45:22;12.40;;;4.50;;
28802;SDS011;15949;55.656;37.422;2023-08-30T14:50:28;13.23;;;4.80;;
28802;SDS011;15949;55.656;37.422;2023-08-30T14:55:34;16.48;;;4.70;;
28802;SDS011;15949;55.656;37.422;2023-08-30T15:00:39;12.73;;;4.90;;
28802;SDS011;15949;55.656;37.422;2023-08-30T15:05:52;15.13;;;4.20;;
28802;SDS011;15949;55.656;37.422;2023-08-30T15:10:59;8.70;;;4.05;;
28802;SDS011;15949;55.656;37.422;2023-08-30T15:16:05;12.15;;;4.43;;
28802;SDS011;15949;55.656;37.422;2023-08-30T15:21:11;11.77;;;4.65;;
28802;SDS011;15949;55.656;37.422;2023-08-30T15:26:16;11.00;;;4.30;;
28802;SDS011;15949;55.656;37.422;2023-08-30T15:31:23;7.35;;;4.07;;
28802;SDS011;15949;55.656;37.422;2023-08-30T15:36:29;9.43;;;5.00;;
28802;SDS011;15949;55.656;37.422;2023-08-30T15:41:35;14.27;;;5.63;;
28802;SDS011;15949;55.656;37.422;2023-08-30T15:46:41;11.85;;;5.35;;
28802;SDS011;15949;55.656;37.422;2023-08-30T15:51:48;13.88;;;6.18;;
28802;SDS011;15949;55.656;37.422;2023-08-30T15:56:54;13.23;;;6.13;;
28802;SDS011;15949;55.656;37.422;2023-08-30T16:02:00;12.00;;;6.10;;
28802;SDS011;15949;55.656;37.422;2023-08-30T16:07:05;16.33;;;5.60;;
28802;SDS011;15949;55.656;37.422;2023-08-30T16:12:12;13.68;;;6.35;;
28802;SDS011;15949;55.656;37.422;2023-08-30T16:17:18;21.48;;;6.13;;
28802;SDS011;15949;55.656;37.422;2023-08-30T16:22:24;14.32;;;7.00;;
28802;SDS011;15949;55.656;37.422;2023-08-30T16:27:29;21.08;;;7.43;;
28802;SDS011;15949;55.656;37.422;2023-08-30T16:32:35;23.38;;;10.27;;
28802;SDS011;15949;55.656;37.422;2023-08-30T16:37:41;23.75;;;11.25;;
28802;SDS011;15949;55.656;37.422;2023-08-30T16:42:46;23.83;;;11.50;;
28802;SDS011;15949;55.656;37.422;2023-08-30T16:47:54;22.80;;;10.38;;
28802;SDS011;15949;55.656;37.422;2023-08-30T16:53:00;20.35;;;9.10;;
28802;SDS011;15949;55.656;37.422;2023-08-30T16:58:05;24.15;;;10.85;;
28802;SDS011;15949;55.656;37.422;2023-08-30T17:03:11;16.48;;;9.65;;
28802;SDS011;15949;55.656;37.422;2023-08-30T17:08:17;20.10;;;13.05;;
28802;SDS011;15949;55.656;37.422;2023-08-30T17:13:22;24.80;;;10.10;;
28802;SDS011;15949;55.656;37.422;2023-08-30T17:18:28;26.00;;;9.48;;
28802;SDS011;15949;55.656;37.422;2023-08-30T17:23:35;17.88;;;8.40;;
28802;SDS011;15949;55.656;37.422;2023-08-30T17:28:43;19.13;;;8.63;;
28802;SDS011;15949;55.656;37.422;2023-08-30T17:33:48;15.00;;;8.60;;
28802;SDS011;15949;55.656;37.422;2023-08-30T17:38:54;21.95;;;8.65;;
28802;SDS011;15949;55.656;37.422;2023-08-30T17:44:00;15.27;;;8.07;;
28802;SDS011;15949;55.656;37.422;2023-08-30T17:49:06;22.30;;;9.40;;
28802;SDS011;15949;55.656;37.422;2023-08-30T17:54:12;55.50;;;42.80;;
28802;SDS011;15949;55.656;37.422;2023-08-30T17:59:17;26.40;;;19.10;;
28802;SDS011;15949;55.656;37.422;2023-08-30T18:04:23;23.85;;;13.48;;
28802;SDS011;15949;55.656;37.422;2023-08-30T18:09:29;22.33;;;9.82;;
28802;SDS011;15949;55.656;37.422;2023-08-30T18:14:36;20.08;;;9.63;;
28802;SDS011;15949;55.656;37.422;2023-08-30T18:19:42;15.65;;;8.75;;
28802;SDS011;15949;55.656;37.422;2023-08-30T18:24:47;17.80;;;7.80;;
28802;SDS011;15949;55.656;37.422;2023-08-30T18:29:54;15.40;;;8.02;;
28802;SDS011;15949;55.656;37.422;2023-08-30T18:34:59;13.73;;;7.88;;
28802;SDS011;15949;55.656;37.422;2023-08-30T18:40:05;10.70;;;7.25;;
28802;SDS011;15949;55.656;37.422;2023-08-30T18:45:13;12.70;;;7.25;;
28802;SDS011;15949;55.656;37.422;2023-08-30T18:50:19;10.65;;;7.00;;
28802;SDS011;15949;55.656;37.422;2023-08-30T18:55:25;15.90;;;7.65;;
28802;SDS011;15949;55.656;37.422;2023-08-30T19:00:30;12.48;;;6.95;;
28802;SDS011;15949;55.656;37.422;2023-08-30T19:05:37;8.70;;;6.70;;
28802;SDS011;15949;55.656;37.422;2023-08-30T19:10:44;12.63;;;7.38;;
28802;SDS011;15949;55.656;37.422;2023-08-30T19:15:50;13.13;;;7.50;;
28802;SDS011;15949;55.656;37.422;2023-08-30T19:20:56;11.82;;;7.80;;
28802;SDS011;15949;55.656;37.422;2023-08-30T19:26:03;14.60;;;7.70;;
28802;SDS011;15949;55.656;37.422;2023-08-30T19:31:08;14.75;;;7.05;;
28802;SDS011;15949;55.656;37.422;2023-08-30T19:36:15;19.95;;;7.68;;
28802;SDS011;15949;55.656;37.422;2023-08-30T19:41:23;17.80;;;8.00;;
28802;SDS011;15949;55.656;37.422;2023-08-30T19:46:30;13.38;;;7.70;;
28802;SDS011;15949;55.656;37.422;2023-08-30T19:51:36;15.45;;;7.35;;
28802;SDS011;15949;55.656;37.422;2023-08-30T19:56:41;15.40;;;7.47;;
28802;SDS011;15949;55.656;37.422;2023-08-30T20:01:47;14.63;;;8.02;;
28802;SDS011;15949;55.656;37.422;2023-08-30T20:06:53;13.80;;;7.88;;
28802;SDS011;15949;55.656;37.422;2023-08-30T20:11:58;15.10;;;7.85;;
28802;SDS011;15949;55.656;37.422;2023-08-30T20:17:04;19.48;;;8.52;;
28802;SDS011;15949;55.656;37.422;2023-08-30T20:22:10;13.68;;;7.57;;
28802;SDS011;15949;55.656;37.422;2023-08-30T20:27:16;12.15;;;7.45;;
28802;SDS011;15949;55.656;37.422;2023-08-30T20:32:22;13.07;;;7.57;;
28802;SDS011;15949;55.656;37.422;2023-08-30T20:37:29;15.60;;;7.68;;
28802;SDS011;15949;55.656;37.422;2023-08-30T20:42:38;13.80;;;7.78;;
28802;SDS011;15949;55.656;37.422;2023-08-30T20:47:43;13.55;;;7.68;;
28802;SDS011;15949;55.656;37.422;2023-08-30T20:52:49;14.20;;;7.88;;
28802;SDS011;15949;55.656;37.422;2023-08-30T20:57:55;18.55;;;8.02;;
28802;SDS011;15949;55.656;37.422;2023-08-30T21:03:04;15.30;;;7.20;;
28802;SDS011;15949;55.656;37.422;2023-08-30T21:08:10;34.22;;;20.92;;
28802;SDS011;15949;55.656;37.422;2023-08-30T21:13:16;21.30;;;11.35;;
28802;SDS011;15949;55.656;37.422;2023-08-30T21:18:22;10.77;;;6.85;;
28802;SDS011;15949;55.656;37.422;2023-08-30T21:23:28;8.93;;;6.57;;
28802;SDS011;15949;55.656;37.422;2023-08-30T21:28:33;12.43;;;6.68;;
28802;SDS011;15949;55.656;37.422;2023-08-30T21:33:39;9.00;;;5.65;;
28802;SDS011;15949;55.656;37.422;2023-08-30T21:38:45;8.55;;;6.22;;
28802;SDS011;15949;55.656;37.422;2023-08-30T21:43:51;9.88;;;6.82;;
28802;SDS011;15949;55.656;37.422;2023-08-30T21:48:57;10.27;;;6.75;;
28802;SDS011;15949;55.656;37.422;2023-08-30T21:54:03;10.07;;;6.35;;
28802;SDS011;15949;55.656;37.422;2023-08-30T21:59:09;9.88;;;6.55;;
28802;SDS011;15949;55.656;37.422;2023-08-30T22:04:15;10.38;;;6.20;;
28802;SDS011;15949;55.656;37.422;2023-08-30T22:09:22;8.38;;;5.72;;
28802;SDS011;15949;55.656;37.422;2023-08-30T22:14:28;10.10;;;5.82;;
28802;SDS011;15949;55.656;37.422;2023-08-30T22:19:33;7.70;;;5.30;;
28802;SDS011;15949;55.656;37.422;2023-08-30T22:24:39;12.00;;;5.38;;
28802;SDS011;15949;55.656;37.422;2023-08-30T22:29:45;7.63;;;5.57;;
28802;SDS011;15949;55.656;37.422;2023-08-30T22:34:50;6.38;;;5.18;;
28802;SDS011;15949;55.656;37.422;2023-08-30T22:39:56;8.88;;;6.70;;
28802;SDS011;15949;55.656;37.422;2023-08-30T22:45:02;10.48;;;6.97;;
28802;SDS011;15949;55.656;37.422;2023-08-30T22:50:08;14.48;;;7.07;;
28802;SDS011;15949;55.656;37.422;2023-08-30T22:55:14;9.10;;;7.13;;
28802;SDS011;15949;55.656;37.422;2023-08-30T23:00:19;10.25;;;7.20;;
28802;SDS011;15949;55.656;37.422;2023-08-30T23:05:25;12.30;;;7.75;;
28802;SDS011;15949;55.656;37.422;2023-08-30T23:10:31;11.27;;;8.00;;
28802;SDS011;15949;55.656;37.422;2023-08-30T23:15:36;12.63;;;8.38;;
28802;SDS011;15949;55.656;37.422;2023-08-30T23:20:42;19.83;;;8.90;;
28802;SDS011;15949;55.656;37.422;2023-08-30T23:25:48;19.08;;;10.82;;
28802;SDS011;15949;55.656;37.422;2023-08-30T23:30:54;21.70;;;12.35;;
28802;SDS011;15949;55.656;37.422;2023-08-30T23:36:00;21.88;;;12.68;;
28802;SDS011;15949;55.656;37.422;2023-08-30T23:41:07;27.17;;;14.38;;
28802;SDS011;15949;55.656;37.422;2023-08-30T23:46:12;29.63;;;15.00;;
28802;SDS011;15949;55.656;37.422;2023-08-30T23:51:18;25.10;;;14.40;;
28802;SDS011;15949;55.656;37.422;2023-08-30T23:56:24;22.40;;;13.63;;
